Time;durP1;ratioP1;P1;durP2;ratioP2;P2;SDS_P1;SDS_P2;PMS_P1;PMS_P2;Temp;Humidity;BMP_temperature;BMP_pressure;BME280_temperature;BME280_humidity;BME280_pressure;Samples;Min_cycle;Max_cycle;Signal;HPM_P1;HPM_P2
2022/11/23 00:02:04;;;;;;;;;;;18.70;42.90;;;;;;5014033;28;19993;-73
2022/11/23 00:04:29;;;;;;;;;;;18.70;42.90;;;;;;5029515;28;19986;-72
2022/11/23 00:06:55;;;;;;;;;;;18.70;43.00;;;;;;5029677;28;20403;-73
2022/11/23 00:09:20;;;;;;;;;;;18.70;43.10;;;;;;5030302;28;20396;-73
2022/11/23 00:11:46;;;;;;;;;;;18.70;43.00;;;;;;5032354;28;19916;-73
2022/11/23 00:14:11;;;;;;;;;;;18.70;43.10;;;;;;5028870;28;19929;-74
2022/11/23 00:16:37;;;;;;;;;;;18.70;43.00;;;;;;5030673;28;20403;-73
2022/11/23 00:19:02;;;;;;;;;;;18.70;43.00;;;;;;5030324;28;20273;-73
2022/11/23 00:21:28;;;;;;;;;;;18.70;43.00;;;;;;5031051;28;20320;-74
2022/11/23 00:23:54;;;;;;;;;;;18.70;43.00;;;;;;5013052;28;20356;-74
2022/11/23 00:26:20;;;;;;;;;;;18.70;43.10;;;;;;5030427;28;20014;-74
2022/11/23 00:28:45;;;;;;;;;;;18.70;43.00;;;;;;5029091;28;19995;-73
2022/11/23 00:31:12;;;;;;;;;;;18.70;43.10;;;;;;5029930;28;20377;-73
2022/11/23 00:33:37;;;;;;;;;;;18.70;42.90;;;;;;5029937;28;20346;-73
2022/11/23 00:36:04;;;;;;;;;;;18.70;42.90;;;;;;5031441;28;20017;-74
2022/11/23 00:38:29;;;;;;;;;;;18.70;42.90;;;;;;5045997;28;19921;-72
2022/11/23 00:40:59;;;;;;;;;;;18.70;43.00;;;;;;5034420;28;20381;-73
2022/11/23 00:43:25;;;;;;;;;;;18.70;43.10;;;;;;5050083;28;20406;-73
2022/11/23 00:46:09;;;;;;;;;;;18.70;42.90;;;;;;5033600;28;21269;-74
2022/11/23 00:48:34;;;;;;;;;;;18.70;42.80;;;;;;5033711;28;20499;-74
2022/11/23 00:51:00;;;;;;;;;;;18.70;42.90;;;;;;5051055;28;19939;-72
2022/11/23 00:53:26;;;;;;;;;;;18.70;42.80;;;;;;5034604;28;19928;-74
2022/11/23 00:55:52;;;;;;;;;;;18.70;42.80;;;;;;5051385;28;19909;-74
2022/11/23 00:58:17;;;;;;;;;;;18.70;42.90;;;;;;5015342;28;19920;-74
2022/11/23 01:00:43;;;;;;;;;;;18.70;43.10;;;;;;5051684;28;19939;-73
2022/11/23 01:03:08;;;;;;;;;;;18.70;42.80;;;;;;5033470;28;19956;-73
2022/11/23 01:05:37;;;;;;;;;;;18.70;42.90;;;;;;5050653;28;20258;-74
2022/11/23 01:08:02;;;;;;;;;;;18.70;42.90;;;;;;5051198;28;20333;-73
2022/11/23 01:10:28;;;;;;;;;;;18.60;42.70;;;;;;5049735;28;19963;-73
2022/11/23 01:12:54;;;;;;;;;;;18.70;42.80;;;;;;5031906;28;19913;-72
2022/11/23 01:15:19;;;;;;;;;;;18.60;42.80;;;;;;5053209;28;20141;-73
2022/11/23 01:17:45;;;;;;;;;;;18.70;42.90;;;;;;5036782;28;19928;-74
2022/11/23 01:20:10;;;;;;;;;;;18.60;42.90;;;;;;5054738;28;19920;-74
2022/11/23 01:22:35;;;;;;;;;;;18.60;42.90;;;;;;5035363;28;19919;-74
2022/11/23 01:25:01;;;;;;;;;;;18.60;43.00;;;;;;5018695;28;20396;-74
2022/11/23 01:27:26;;;;;;;;;;;18.60;42.90;;;;;;5051507;28;19956;-74
2022/11/23 01:29:52;;;;;;;;;;;18.60;42.90;;;;;;5055191;28;19915;-74
2022/11/23 01:32:17;;;;;;;;;;;18.70;43.00;;;;;;5052284;28;19913;-73
2022/11/23 01:34:43;;;;;;;;;;;18.60;42.90;;;;;;5019088;28;19923;-74
2022/11/23 01:37:08;;;;;;;;;;;18.60;42.80;;;;;;5035320;28;19917;-74
2022/11/23 01:39:33;;;;;;;;;;;18.60;42.80;;;;;;5035359;28;19963;-73
2022/11/23 01:41:59;;;;;;;;;;;18.60;42.90;;;;;;5053632;28;19962;-73
2022/11/23 01:44:24;;;;;;;;;;;18.60;42.80;;;;;;5055041;28;19932;-74
2022/11/23 01:46:50;;;;;;;;;;;18.60;42.90;;;;;;5050036;28;20392;-73
2022/11/23 01:49:15;;;;;;;;;;;18.60;43.00;;;;;;5035943;28;19912;-73
2022/11/23 01:51:42;;;;;;;;;;;18.60;42.90;;;;;;5035162;28;19920;-74
2022/11/23 01:54:12;;;;;;;;;;;18.60;43.00;;;;;;5053874;28;19920;-74
2022/11/23 01:56:38;;;;;;;;;;;18.60;43.00;;;;;;5036753;28;20009;-73
2022/11/23 01:59:04;;;;;;;;;;;18.60;43.00;;;;;;5053288;28;20261;-74
2022/11/23 02:01:30;;;;;;;;;;;18.60;43.10;;;;;;5037473;28;19921;-73
2022/11/23 02:03:55;;;;;;;;;;;18.60;43.10;;;;;;5047804;28;19938;-75
2022/11/23 02:06:21;;;;;;;;;;;18.50;42.90;;;;;;5043941;28;19916;-74
2022/11/23 02:08:46;;;;;;;;;;;18.60;43.00;;;;;;5047587;28;20393;-73
2022/11/23 02:11:12;;;;;;;;;;;18.60;43.00;;;;;;5054501;28;20412;-74
2022/11/23 02:13:38;;;;;;;;;;;18.60;43.20;;;;;;5045265;28;19922;-72
2022/11/23 02:16:03;;;;;;;;;;;18.50;43.00;;;;;;5019490;28;19917;-74
2022/11/23 02:18:29;;;;;;;;;;;18.50;43.20;;;;;;5052961;28;19917;-74
2022/11/23 02:20:55;;;;;;;;;;;18.50;43.20;;;;;;5036146;28;19963;-74
2022/11/23 02:23:23;;;;;;;;;;;18.50;43.10;;;;;;5018001;28;19912;-74
2022/11/23 02:25:57;;;;;;;;;;;18.50;43.20;;;;;;5035491;28;20428;-73
2022/11/23 02:28:23;;;;;;;;;;;18.50;43.20;;;;;;5053992;28;19940;-73
2022/11/23 02:30:49;;;;;;;;;;;18.60;43.20;;;;;;5035376;28;20007;-73
2022/11/23 02:33:15;;;;;;;;;;;18.60;42.90;;;;;;5035715;28;19956;-73
2022/11/23 02:35:54;;;;;;;;;;;18.70;42.80;;;;;;5030930;28;19956;-73
2022/11/23 02:38:19;;;;;;;;;;;18.70;42.90;;;;;;5005777;28;19931;-73
2022/11/23 02:40:45;;;;;;;;;;;18.80;42.90;;;;;;5029942;28;19916;-73
2022/11/23 02:43:10;;;;;;;;;;;18.80;42.80;;;;;;5034988;28;19920;-73
2022/11/23 02:45:46;;;;;;;;;;;18.90;42.80;;;;;;5052815;28;19916;-74
2022/11/23 02:48:12;;;;;;;;;;;18.90;42.80;;;;;;5034871;28;20377;-73
2022/11/23 02:50:37;;;;;;;;;;;18.90;42.60;;;;;;5052887;28;19951;-73
2022/11/23 02:53:02;;;;;;;;;;;18.90;42.40;;;;;;5039110;28;19965;-74
2022/11/23 02:55:28;;;;;;;;;;;18.90;42.30;;;;;;5035205;28;20335;-73
2022/11/23 02:57:53;;;;;;;;;;;19.00;42.40;;;;;;5050473;28;20351;-74
2022/11/23 03:00:19;;;;;;;;;;;19.00;42.30;;;;;;5035700;28;19913;-74
2022/11/23 03:02:44;;;;;;;;;;;19.10;42.30;;;;;;5034973;28;19909;-73
2022/11/23 03:05:10;;;;;;;;;;;19.10;42.20;;;;;;5052417;28;19913;-73
2022/11/23 03:07:35;;;;;;;;;;;19.10;42.10;;;;;;5034697;28;20275;-74
2022/11/23 03:10:01;;;;;;;;;;;19.10;42.00;;;;;;5034632;28;19920;-74
2022/11/23 03:12:26;;;;;;;;;;;19.10;42.00;;;;;;5033714;28;19919;-73
2022/11/23 03:14:51;;;;;;;;;;;19.20;42.10;;;;;;5035208;28;20019;-73
2022/11/23 03:17:17;;;;;;;;;;;19.10;42.10;;;;;;5051530;28;19913;-74
2022/11/23 03:19:42;;;;;;;;;;;19.10;42.10;;;;;;5053288;28;20026;-74
2022/11/23 03:22:08;;;;;;;;;;;19.10;42.00;;;;;;5016388;28;19920;-74
2022/11/23 03:24:33;;;;;;;;;;;19.10;42.20;;;;;;5020175;28;19967;-73
2022/11/23 03:26:59;;;;;;;;;;;19.10;42.20;;;;;;5021960;28;19963;-74
2022/11/23 03:29:25;;;;;;;;;;;19.10;42.30;;;;;;5035033;28;19948;-73
2022/11/23 03:31:53;;;;;;;;;;;19.00;42.20;;;;;;5034134;28;19921;-73
2022/11/23 03:34:19;;;;;;;;;;;19.00;42.40;;;;;;5033790;28;20329;-73
2022/11/23 03:36:44;;;;;;;;;;;19.00;42.40;;;;;;5013019;28;19963;-74
2022/11/23 03:39:10;;;;;;;;;;;19.00;42.40;;;;;;5024368;28;19938;-74
2022/11/23 03:41:35;;;;;;;;;;;19.00;42.40;;;;;;5051586;28;19917;-74
2022/11/23 03:44:01;;;;;;;;;;;18.90;42.40;;;;;;5034860;28;20387;-74
2022/11/23 03:46:26;;;;;;;;;;;18.90;42.40;;;;;;5033818;28;19919;-73
2022/11/23 03:48:52;;;;;;;;;;;19.00;42.50;;;;;;5032511;28;19920;-74
2022/11/23 03:51:17;;;;;;;;;;;19.00;43.10;;;;;;5051286;28;20319;-73
2022/11/23 03:53:43;;;;;;;;;;;19.00;42.50;;;;;;5034088;28;19912;-72
2022/11/23 03:56:08;;;;;;;;;;;19.00;42.50;;;;;;5036842;28;19925;-74
2022/11/23 03:58:33;;;;;;;;;;;19.00;42.50;;;;;;5034534;28;19916;-73
2022/11/23 04:00:59;;;;;;;;;;;19.00;42.40;;;;;;5033746;28;19917;-73
2022/11/23 04:03:25;;;;;;;;;;;18.90;42.40;;;;;;5033894;28;19913;-74
2022/11/23 04:05:50;;;;;;;;;;;18.90;42.40;;;;;;5046015;28;19917;-73
2022/11/23 04:08:15;;;;;;;;;;;18.90;42.40;;;;;;5033617;28;20003;-73
2022/11/23 04:10:41;;;;;;;;;;;18.90;42.40;;;;;;5034242;28;19913;-74
2022/11/23 04:13:06;;;;;;;;;;;18.90;42.40;;;;;;5050163;28;19913;-72
2022/11/23 04:15:32;;;;;;;;;;;18.90;42.40;;;;;;5034618;28;19979;-72
2022/11/23 04:17:57;;;;;;;;;;;18.80;42.50;;;;;;5051691;28;19990;-74
2022/11/23 04:20:23;;;;;;;;;;;18.90;42.70;;;;;;5051818;28;19921;-73
2022/11/23 04:22:48;;;;;;;;;;;18.80;42.60;;;;;;5015913;28;19965;-74
2022/11/23 04:25:14;;;;;;;;;;;18.80;42.70;;;;;;5015177;28;20383;-73
2022/11/23 04:27:39;;;;;;;;;;;18.80;42.50;;;;;;5032127;28;19909;-72
2022/11/23 04:30:05;;;;;;;;;;;18.80;42.60;;;;;;5031095;28;19948;-73
2022/11/23 04:32:30;;;;;;;;;;;18.90;42.60;;;;;;5051078;28;20400;-72
2022/11/23 04:34:56;;;;;;;;;;;18.80;42.50;;;;;;5050826;28;19915;-73
2022/11/23 04:37:21;;;;;;;;;;;18.90;42.50;;;;;;5049647;28;19928;-74
2022/11/23 04:39:47;;;;;;;;;;;18.80;42.50;;;;;;5052221;28;19908;-73
2022/11/23 04:42:12;;;;;;;;;;;18.80;42.50;;;;;;5033220;28;19954;-73
2022/11/23 04:44:38;;;;;;;;;;;18.80;42.50;;;;;;5016983;28;19917;-73
2022/11/23 04:47:03;;;;;;;;;;;18.80;42.50;;;;;;5033318;28;19963;-73
2022/11/23 04:49:29;;;;;;;;;;;18.90;42.50;;;;;;5035716;28;19919;-73
2022/11/23 04:51:54;;;;;;;;;;;18.90;42.50;;;;;;5035543;28;19917;-73
2022/11/23 04:54:19;;;;;;;;;;;18.80;42.50;;;;;;5037949;28;19908;-73
2022/11/23 04:56:45;;;;;;;;;;;18.80;42.50;;;;;;5053389;28;19919;-72
2022/11/23 04:59:10;;;;;;;;;;;18.80;42.50;;;;;;5056182;28;19909;-74
2022/11/23 05:01:36;;;;;;;;;;;18.80;42.50;;;;;;5053785;28;19917;-72
2022/11/23 05:04:01;;;;;;;;;;;18.80;42.50;;;;;;5053701;28;20015;-73
2022/11/23 05:06:27;;;;;;;;;;;18.90;42.50;;;;;;5044208;28;20273;-73
2022/11/23 05:08:52;;;;;;;;;;;18.80;42.50;;;;;;5017666;28;20278;-73
2022/11/23 05:11:19;;;;;;;;;;;18.80;42.50;;;;;;5055648;28;20073;-72
2022/11/23 05:13:44;;;;;;;;;;;18.80;42.50;;;;;;5037139;28;20365;-73
2022/11/23 05:16:10;;;;;;;;;;;18.90;42.50;;;;;;5037670;28;19916;-73
2022/11/23 05:18:35;;;;;;;;;;;18.80;42.50;;;;;;5053530;28;19913;-73
2022/11/23 05:21:01;;;;;;;;;;;18.80;42.50;;;;;;5037551;28;20021;-73
2022/11/23 05:23:26;;;;;;;;;;;18.80;42.50;;;;;;5046064;28;19913;-73
2022/11/23 05:25:52;;;;;;;;;;;18.80;42.60;;;;;;5035459;28;19915;-74
2022/11/23 05:28:18;;;;;;;;;;;18.80;42.70;;;;;;5032439;28;19960;-72
2022/11/23 05:30:44;;;;;;;;;;;18.80;42.70;;;;;;5037423;28;19944;-72
2022/11/23 05:33:09;;;;;;;;;;;18.80;42.60;;;;;;5054028;28;20374;-73
2022/11/23 05:35:35;;;;;;;;;;;18.80;42.70;;;;;;5036058;28;19909;-72
2022/11/23 05:38:00;;;;;;;;;;;18.80;42.70;;;;;;5052485;28;19968;-73
2022/11/23 05:40:26;;;;;;;;;;;18.80;42.70;;;;;;5054079;28;19913;-72
2022/11/23 05:42:55;;;;;;;;;;;18.80;42.70;;;;;;5053991;28;19955;-73
2022/11/23 05:45:21;;;;;;;;;;;18.80;42.70;;;;;;5036280;28;19913;-72
2022/11/23 05:47:52;;;;;;;;;;;18.80;42.70;;;;;;5052316;28;19928;-72
2022/11/23 05:50:18;;;;;;;;;;;18.80;42.70;;;;;;5054610;28;20547;-74
2022/11/23 05:52:44;;;;;;;;;;;18.80;42.60;;;;;;5017452;28;19974;-72
2022/11/23 05:55:09;;;;;;;;;;;18.80;42.60;;;;;;5032917;28;19936;-73
2022/11/23 05:57:35;;;;;;;;;;;18.80;42.60;;;;;;5018872;28;19959;-72
2022/11/23 06:00:00;;;;;;;;;;;18.80;42.60;;;;;;5053561;28;20319;-72
2022/11/23 06:02:26;;;;;;;;;;;18.80;42.60;;;;;;5035694;28;20047;-72
2022/11/23 06:04:51;;;;;;;;;;;18.80;42.50;;;;;;5053955;28;19920;-73
2022/11/23 06:07:17;;;;;;;;;;;18.90;42.70;;;;;;5051938;28;19913;-72
2022/11/23 06:09:42;;;;;;;;;;;18.80;42.50;;;;;;5036505;28;19909;-72
2022/11/23 06:12:08;;;;;;;;;;;18.80;42.60;;;;;;5053109;28;20407;-72
2022/11/23 06:14:33;;;;;;;;;;;18.80;42.60;;;;;;5036563;28;20015;-72
2022/11/23 06:16:59;;;;;;;;;;;18.80;42.70;;;;;;5018779;28;19947;-72
2022/11/23 06:19:24;;;;;;;;;;;18.80;42.70;;;;;;5053278;28;19920;-72
2022/11/23 06:21:49;;;;;;;;;;;18.80;42.70;;;;;;5050038;28;19923;-72
2022/11/23 06:24:15;;;;;;;;;;;18.80;42.70;;;;;;5016542;28;19919;-72
2022/11/23 06:26:40;;;;;;;;;;;18.80;43.50;;;;;;5044332;28;19956;-72
2022/11/23 06:29:06;;;;;;;;;;;18.80;43.20;;;;;;5034113;28;20377;-73
2022/11/23 06:31:31;;;;;;;;;;;18.80;43.00;;;;;;5049896;28;19936;-73
2022/11/23 06:33:57;;;;;;;;;;;18.80;43.00;;;;;;5034072;28;19939;-73
2022/11/23 06:36:22;;;;;;;;;;;18.80;42.90;;;;;;5034055;28;19916;-73
2022/11/23 06:38:48;;;;;;;;;;;18.80;43.00;;;;;;5051869;28;19925;-72
2022/11/23 06:41:13;;;;;;;;;;;18.70;42.90;;;;;;5051042;28;19921;-72
2022/11/23 06:43:40;;;;;;;;;;;18.80;42.90;;;;;;5035706;28;19916;-73
2022/11/23 06:46:06;;;;;;;;;;;18.80;43.00;;;;;;5034459;28;19924;-73
2022/11/23 06:48:32;;;;;;;;;;;18.80;42.90;;;;;;5051987;28;19981;-72
2022/11/23 06:50:58;;;;;;;;;;;18.80;42.90;;;;;;5052035;28;19917;-73
2022/11/23 06:53:25;;;;;;;;;;;18.70;42.80;;;;;;5051308;28;20304;-72
2022/11/23 06:55:50;;;;;;;;;;;18.80;42.90;;;;;;5051674;28;20011;-73
2022/11/23 06:58:16;;;;;;;;;;;18.80;42.90;;;;;;5051418;28;20358;-73
2022/11/23 07:00:41;;;;;;;;;;;18.80;42.90;;;;;;5049578;28;19917;-73
2022/11/23 07:03:10;;;;;;;;;;;18.80;42.90;;;;;;5032472;28;19913;-72
2022/11/23 07:05:37;;;;;;;;;;;18.80;42.90;;;;;;5013155;28;19920;-73
2022/11/23 07:08:02;;;;;;;;;;;18.80;42.80;;;;;;5032142;28;19913;-72
2022/11/23 07:10:28;;;;;;;;;;;18.80;42.90;;;;;;5050787;28;19916;-73
2022/11/23 07:12:53;;;;;;;;;;;18.80;42.90;;;;;;5030031;28;19917;-73
2022/11/23 07:15:18;;;;;;;;;;;18.80;43.30;;;;;;5050606;28;19917;-72
2022/11/23 07:17:44;;;;;;;;;;;18.80;43.30;;;;;;5034916;28;20010;-73
2022/11/23 07:20:10;;;;;;;;;;;18.70;43.10;;;;;;5051958;28;19917;-73
2022/11/23 07:22:35;;;;;;;;;;;18.70;43.00;;;;;;5018459;28;20019;-73
2022/11/23 07:25:01;;;;;;;;;;;18.70;43.00;;;;;;5034436;28;19913;-73
2022/11/23 07:27:27;;;;;;;;;;;18.70;43.10;;;;;;5032628;28;19927;-72
2022/11/23 07:29:52;;;;;;;;;;;18.70;43.00;;;;;;5052483;28;19915;-73
2022/11/23 07:32:17;;;;;;;;;;;18.70;43.10;;;;;;5051255;28;19971;-73
2022/11/23 07:34:43;;;;;;;;;;;18.80;43.20;;;;;;5035028;28;19919;-74
2022/11/23 07:37:08;;;;;;;;;;;18.70;43.10;;;;;;5047130;28;19983;-73
2022/11/23 07:39:34;;;;;;;;;;;18.70;43.10;;;;;;5018292;28;19935;-72
2022/11/23 07:41:59;;;;;;;;;;;18.80;43.10;;;;;;5032743;28;19931;-73
2022/11/23 07:44:25;;;;;;;;;;;18.70;43.00;;;;;;5052538;28;20410;-73
2022/11/23 07:46:53;;;;;;;;;;;18.80;43.10;;;;;;5034627;28;19913;-73
2022/11/23 07:49:19;;;;;;;;;;;18.70;43.00;;;;;;5051482;28;19952;-73
2022/11/23 07:51:44;;;;;;;;;;;18.70;43.10;;;;;;5049767;28;19956;-73
2022/11/23 07:54:09;;;;;;;;;;;18.80;43.40;;;;;;5041741;28;19921;-74
2022/11/23 07:56:35;;;;;;;;;;;18.70;43.30;;;;;;5014786;28;19916;-74
2022/11/23 07:59:00;;;;;;;;;;;18.70;43.30;;;;;;5031648;28;19959;-73
2022/11/23 08:01:26;;;;;;;;;;;18.80;43.50;;;;;;5032279;28;19916;-73
2022/11/23 08:03:51;;;;;;;;;;;19.10;43.70;;;;;;5033805;28;19996;-73
2022/11/23 08:06:17;;;;;;;;;;;19.30;43.50;;;;;;5049056;28;19909;-73
2022/11/23 08:08:42;;;;;;;;;;;19.60;43.10;;;;;;5033053;28;19913;-74
2022/11/23 08:11:08;;;;;;;;;;;19.90;42.90;;;;;;5032206;28;19935;-73
2022/11/23 08:13:33;;;;;;;;;;;20.00;42.60;;;;;;5007764;28;19923;-74
2022/11/23 08:15:59;;;;;;;;;;;20.20;42.50;;;;;;5030814;28;19917;-73
2022/11/23 08:18:25;;;;;;;;;;;20.40;42.30;;;;;;5031071;28;19920;-73
2022/11/23 08:20:50;;;;;;;;;;;20.50;42.20;;;;;;5031155;28;19916;-74
2022/11/23 08:23:16;;;;;;;;;;;20.60;42.10;;;;;;5048403;28;19917;-73
2022/11/23 08:25:41;;;;;;;;;;;20.60;41.90;;;;;;5016519;28;19967;-73
2022/11/23 08:28:07;;;;;;;;;;;20.70;41.90;;;;;;5013308;28;20384;-73
2022/11/23 08:30:32;;;;;;;;;;;20.80;41.80;;;;;;5036119;28;20348;-74
2022/11/23 08:32:58;;;;;;;;;;;20.80;41.70;;;;;;5031503;28;19909;-73
2022/11/23 08:35:23;;;;;;;;;;;20.80;42.00;;;;;;5030471;28;19960;-73
2022/11/23 08:37:48;;;;;;;;;;;20.80;42.30;;;;;;5035802;28;20039;-73
2022/11/23 08:40:14;;;;;;;;;;;20.90;41.60;;;;;;5054280;28;19913;-73
2022/11/23 08:42:40;;;;;;;;;;;20.90;41.50;;;;;;5052722;28;20263;-72
2022/11/23 08:45:05;;;;;;;;;;;21.00;41.70;;;;;;5034897;28;20444;-73
2022/11/23 08:47:31;;;;;;;;;;;21.00;41.50;;;;;;5053268;28;19917;-73
2022/11/23 08:49:57;;;;;;;;;;;21.00;41.40;;;;;;5037382;28;19961;-74
2022/11/23 08:52:22;;;;;;;;;;;21.00;41.40;;;;;;5053209;28;20395;-74
2022/11/23 08:54:48;;;;;;;;;;;21.10;41.50;;;;;;5037039;28;20379;-72
2022/11/23 08:57:13;;;;;;;;;;;21.00;41.40;;;;;;5054836;28;19966;-72
2022/11/23 08:59:39;;;;;;;;;;;21.10;42.10;;;;;;5037379;28;19913;-73
2022/11/23 09:02:04;;;;;;;;;;;21.10;41.40;;;;;;5051817;28;19920;-72
2022/11/23 09:04:30;;;;;;;;;;;21.20;41.50;;;;;;5033236;28;19912;-73
2022/11/23 09:06:55;;;;;;;;;;;21.20;41.50;;;;;;5047607;28;19920;-73
2022/11/23 09:09:21;;;;;;;;;;;21.20;41.40;;;;;;5053826;28;19916;-73
2022/11/23 09:11:47;;;;;;;;;;;21.20;41.50;;;;;;5035181;28;19919;-73
2022/11/23 09:14:12;;;;;;;;;;;21.20;41.40;;;;;;5052551;28;20002;-73
2022/11/23 09:16:38;;;;;;;;;;;21.20;41.40;;;;;;5036815;28;19913;-73
2022/11/23 09:19:05;;;;;;;;;;;21.30;41.50;;;;;;5054628;28;19912;-73
2022/11/23 09:21:32;;;;;;;;;;;21.30;41.50;;;;;;5020209;28;20387;-73
2022/11/23 09:23:58;;;;;;;;;;;21.30;41.50;;;;;;5054216;28;19913;-73
2022/11/23 09:26:24;;;;;;;;;;;21.30;41.50;;;;;;5051962;28;19940;-74
2022/11/23 09:28:49;;;;;;;;;;;21.30;41.40;;;;;;5054317;28;19912;-74
2022/11/23 09:31:15;;;;;;;;;;;21.30;41.40;;;;;;5054457;28;19963;-73
2022/11/23 09:33:40;;;;;;;;;;;21.30;41.40;;;;;;5030037;28;20388;-73
2022/11/23 09:36:06;;;;;;;;;;;21.40;41.50;;;;;;5043714;28;19954;-73
2022/11/23 09:38:31;;;;;;;;;;;21.40;41.40;;;;;;5049395;28;19944;-73
2022/11/23 09:41:00;;;;;;;;;;;21.40;41.60;;;;;;5031128;28;20015;-73
2022/11/23 09:43:25;;;;;;;;;;;21.40;41.80;;;;;;5041439;28;19913;-73
2022/11/23 09:45:54;;;;;;;;;;;21.40;41.90;;;;;;5023500;28;19924;-73
2022/11/23 09:48:24;;;;;;;;;;;21.30;41.80;;;;;;5030754;28;20004;-73
2022/11/23 09:50:53;;;;;;;;;;;21.40;41.90;;;;;;5033892;28;19924;-73
2022/11/23 09:53:44;;;;;;;;;;;21.40;41.90;;;;;;5045387;28;19917;-72
2022/11/23 09:56:14;;;;;;;;;;;21.50;41.90;;;;;;5035745;28;20470;-72
2022/11/23 09:58:40;;;;;;;;;;;21.50;42.00;;;;;;5028595;28;20373;-73
2022/11/23 10:01:06;;;;;;;;;;;21.50;42.10;;;;;;5048458;28;19917;-74
2022/11/23 10:03:32;;;;;;;;;;;21.50;42.10;;;;;;5029381;28;19944;-73
2022/11/23 10:06:03;;;;;;;;;;;21.50;42.30;;;;;;5046660;28;19920;-74
2022/11/23 10:08:32;;;;;;;;;;;21.50;42.20;;;;;;5028106;28;19968;-73
2022/11/23 10:11:16;;;;;;;;;;;21.50;42.30;;;;;;5029425;28;19958;-73
2022/11/23 10:13:42;;;;;;;;;;;21.60;42.30;;;;;;5045685;28;19913;-73
2022/11/23 10:16:07;;;;;;;;;;;21.50;42.30;;;;;;5032440;28;19951;-73
2022/11/23 10:18:53;;;;;;;;;;;21.50;42.40;;;;;;5047823;28;19917;-72
2022/11/23 10:21:37;;;;;;;;;;;21.60;42.40;;;;;;5051202;28;19925;-73
2022/11/23 10:24:04;;;;;;;;;;;21.50;42.30;;;;;;5028124;28;19939;-72
2022/11/23 10:26:35;;;;;;;;;;;21.60;42.40;;;;;;5025356;28;19925;-73
2022/11/23 10:29:14;;;;;;;;;;;21.70;42.50;;;;;;5050353;28;19913;-73
2022/11/23 10:31:42;;;;;;;;;;;21.70;42.40;;;;;;5042992;28;19924;-73
2022/11/23 10:34:08;;;;;;;;;;;21.70;42.30;;;;;;5046793;28;19913;-72
2022/11/23 10:36:34;;;;;;;;;;;21.70;42.20;;;;;;5034317;28;19923;-72
2022/11/23 10:39:00;;;;;;;;;;;21.70;42.20;;;;;;5019802;28;19925;-72
2022/11/23 10:41:25;;;;;;;;;;;21.70;42.20;;;;;;5033357;28;20392;-74
2022/11/23 10:44:04;;;;;;;;;;;21.70;42.20;;;;;;5041547;28;19920;-74
2022/11/23 10:46:30;;;;;;;;;;;21.70;42.30;;;;;;5009300;28;19963;-74
2022/11/23 10:49:07;;;;;;;;;;;21.70;42.30;;;;;;5025587;28;20438;-74
2022/11/23 10:51:32;;;;;;;;;;;21.70;42.40;;;;;;5046281;28;19956;-73
2022/11/23 10:54:02;;;;;;;;;;;21.70;42.40;;;;;;5027426;28;19966;-73
2022/11/23 10:56:27;;;;;;;;;;;21.70;42.50;;;;;;5049263;28;19916;-74
2022/11/23 10:58:53;;;;;;;;;;;21.70;42.40;;;;;;5046535;28;19924;-74
2022/11/23 11:01:23;;;;;;;;;;;21.70;42.40;;;;;;5028298;28;19928;-73
2022/11/23 11:03:49;;;;;;;;;;;21.70;42.50;;;;;;5023421;28;19917;-73
2022/11/23 11:06:24;;;;;;;;;;;21.70;42.50;;;;;;5025823;28;19924;-73
2022/11/23 11:08:51;;;;;;;;;;;21.70;42.60;;;;;;5038161;28;19921;-73
2022/11/23 11:11:36;;;;;;;;;;;21.70;42.60;;;;;;5029750;28;19958;-75
2022/11/23 11:14:04;;;;;;;;;;;21.70;42.70;;;;;;5046437;28;19944;-74
2022/11/23 11:16:33;;;;;;;;;;;21.70;42.80;;;;;;5035011;28;19923;-73
2022/11/23 11:19:00;;;;;;;;;;;21.70;42.90;;;;;;5032843;28;19943;-74
2022/11/23 11:21:32;;;;;;;;;;;21.70;42.80;;;;;;5018283;28;20289;-73
2022/11/23 11:24:21;;;;;;;;;;;21.80;42.80;;;;;;5030719;28;19924;-74
2022/11/23 11:26:51;;;;;;;;;;;21.80;42.70;;;;;;5038048;28;19916;-73
2022/11/23 11:29:29;;;;;;;;;;;21.80;42.60;;;;;;5032912;28;20422;-73
2022/11/23 11:32:03;;;;;;;;;;;21.80;42.70;;;;;;5032797;28;19967;-72
2022/11/23 11:34:30;;;;;;;;;;;21.90;42.70;;;;;;5047608;28;19923;-73
2022/11/23 11:36:56;;;;;;;;;;;21.90;42.70;;;;;;5030212;28;19921;-73
2022/11/23 11:39:23;;;;;;;;;;;21.90;42.70;;;;;;5029787;28;19931;-72
2022/11/23 11:41:49;;;;;;;;;;;21.90;42.70;;;;;;5033102;28;20335;-73
2022/11/23 11:44:16;;;;;;;;;;;22.00;42.80;;;;;;5046180;28;19920;-72
2022/11/23 11:46:42;;;;;;;;;;;22.00;42.70;;;;;;5027969;28;19959;-72
2022/11/23 11:49:12;;;;;;;;;;;21.90;42.60;;;;;;5031909;28;20388;-74
2022/11/23 11:51:41;;;;;;;;;;;21.90;42.60;;;;;;5039353;28;19919;-73
2022/11/23 11:54:10;;;;;;;;;;;21.90;42.70;;;;;;5037906;28;20008;-73
2022/11/23 11:56:40;;;;;;;;;;;22.00;42.80;;;;;;5049128;28;19954;-73
2022/11/23 11:59:24;;;;;;;;;;;22.00;42.80;;;;;;5028302;28;19964;-73
2022/11/23 12:01:53;;;;;;;;;;;22.00;42.80;;;;;;5048219;28;19924;-72
2022/11/23 12:04:20;;;;;;;;;;;22.00;42.90;;;;;;5031389;28;20377;-73
2022/11/23 12:06:47;;;;;;;;;;;22.00;42.90;;;;;;5043856;28;19920;-72
2022/11/23 12:09:17;;;;;;;;;;;22.00;42.90;;;;;;5016165;28;19959;-73
2022/11/23 12:11:42;;;;;;;;;;;22.10;42.80;;;;;;5013792;28;20358;-73
2022/11/23 12:14:09;;;;;;;;;;;22.10;42.80;;;;;;5021754;28;20314;-72
2022/11/23 12:16:50;;;;;;;;;;;22.10;42.90;;;;;;5019420;28;20011;-73
2022/11/23 12:19:20;;;;;;;;;;;22.10;42.80;;;;;;5046110;28;20395;-73
2022/11/23 12:22:04;;;;;;;;;;;22.10;42.80;;;;;;5023771;28;19943;-73
2022/11/23 12:24:34;;;;;;;;;;;22.10;42.80;;;;;;5048324;28;20420;-73
2022/11/23 12:27:03;;;;;;;;;;;22.10;42.80;;;;;;5030556;28;19924;-74
2022/11/23 12:29:47;;;;;;;;;;;22.20;42.90;;;;;;5016808;28;20292;-74
2022/11/23 12:32:24;;;;;;;;;;;22.10;42.80;;;;;;5027204;28;19936;-73
2022/11/23 12:35:11;;;;;;;;;;;22.10;42.80;;;;;;5027381;28;19921;-72
2022/11/23 12:37:47;;;;;;;;;;;22.10;43.00;;;;;;5031605;28;20439;-72
2022/11/23 12:40:27;;;;;;;;;;;22.10;42.90;;;;;;5030109;28;19913;-74
2022/11/23 12:43:08;;;;;;;;;;;22.10;42.80;;;;;;5045313;28;19920;-74
2022/11/23 12:45:38;;;;;;;;;;;22.20;42.90;;;;;;5046454;28;19970;-73
2022/11/23 12:48:22;;;;;;;;;;;22.20;42.80;;;;;;5024754;28;19933;-74
2022/11/23 12:50:52;;;;;;;;;;;22.20;42.80;;;;;;5042303;28;19923;-73
2022/11/23 12:53:26;;;;;;;;;;;22.30;42.90;;;;;;5044480;28;19913;-74
2022/11/23 12:56:02;;;;;;;;;;;22.30;42.90;;;;;;5050192;28;19909;-73
2022/11/23 12:58:28;;;;;;;;;;;22.30;42.90;;;;;;5030085;28;20331;-74
2022/11/23 13:01:00;;;;;;;;;;;22.30;43.00;;;;;;5027703;28;19971;-73
2022/11/23 13:03:44;;;;;;;;;;;22.30;43.00;;;;;;5040409;28;19917;-73
2022/11/23 13:06:13;;;;;;;;;;;22.30;43.00;;;;;;5045541;28;19917;-74
2022/11/23 13:08:58;;;;;;;;;;;22.30;43.00;;;;;;5043978;28;19917;-74
2022/11/23 13:11:35;;;;;;;;;;;22.30;43.10;;;;;;5048735;28;19909;-73
2022/11/23 13:14:08;;;;;;;;;;;22.30;43.20;;;;;;5032566;28;19917;-74
2022/11/23 13:16:59;;;;;;;;;;;22.30;43.10;;;;;;5030750;28;19936;-73
2022/11/23 13:19:28;;;;;;;;;;;22.30;43.10;;;;;;5039175;28;19920;-73
2022/11/23 13:21:53;;;;;;;;;;;22.30;43.20;;;;;;5026398;28;20458;-74
2022/11/23 13:24:26;;;;;;;;;;;22.30;43.20;;;;;;5044898;28;19956;-73
2022/11/23 13:27:10;;;;;;;;;;;22.40;43.20;;;;;;5034888;28;19924;-73
2022/11/23 13:29:47;;;;;;;;;;;22.40;43.20;;;;;;5052111;28;19913;-72
2022/11/23 13:32:32;;;;;;;;;;;22.40;43.20;;;;;;5052190;28;20031;-74
2022/11/23 13:34:57;;;;;;;;;;;22.40;43.30;;;;;;5048067;28;19932;-72
2022/11/23 13:37:23;;;;;;;;;;;22.40;43.20;;;;;;5046263;28;20054;-73
2022/11/23 13:39:56;;;;;;;;;;;22.40;43.30;;;;;;5051611;28;19940;-72
2022/11/23 13:42:21;;;;;;;;;;;22.40;43.30;;;;;;5045808;28;20399;-73
2022/11/23 13:44:47;;;;;;;;;;;22.40;43.30;;;;;;5031777;28;19964;-74
2022/11/23 13:47:13;;;;;;;;;;;22.40;43.20;;;;;;5051053;28;19917;-73
2022/11/23 13:49:45;;;;;;;;;;;22.40;43.20;;;;;;5051724;28;19917;-73
2022/11/23 13:52:23;;;;;;;;;;;22.30;43.20;;;;;;5050339;28;19921;-72
2022/11/23 13:55:12;;;;;;;;;;;22.30;43.30;;;;;;5050851;28;19921;-72
2022/11/23 13:57:38;;;;;;;;;;;22.40;43.40;;;;;;5032261;28;19935;-72
2022/11/23 14:00:22;;;;;;;;;;;22.40;43.30;;;;;;5049323;28;20542;-73
2022/11/23 14:02:47;;;;;;;;;;;22.40;43.20;;;;;;5051926;28;19927;-72
2022/11/23 14:05:31;;;;;;;;;;;22.40;43.20;;;;;;5033778;28;19921;-72
2022/11/23 14:07:58;;;;;;;;;;;22.50;43.20;;;;;;5037573;28;19912;-72
2022/11/23 14:10:23;;;;;;;;;;;22.50;43.20;;;;;;5014408;28;19920;-72
2022/11/23 14:13:09;;;;;;;;;;;22.50;43.20;;;;;;5035097;28;19936;-72
2022/11/23 14:15:35;;;;;;;;;;;22.50;43.20;;;;;;5016734;28;19987;-74
2022/11/23 14:18:03;;;;;;;;;;;22.50;43.30;;;;;;5029206;28;19916;-73
2022/11/23 14:20:31;;;;;;;;;;;22.50;43.30;;;;;;5048259;28;19917;-71